sensor_id;sensor_type;location;lat;lon;timestamp;temperature;humidity
324;DHT22;149;51.094;17.002;2023-09-12T00:03:28;17.90;99.90
324;DHT22;149;51.094;17.002;2023-09-12T00:05:59;17.80;99.90
324;DHT22;149;51.094;17.002;2023-09-12T00:08:26;17.80;99.90
324;DHT22;149;51.094;17.002;2023-09-12T00:11:04;17.90;99.90
324;DHT22;149;51.094;17.002;2023-09-12T00:32:22;17.50;99.90
324;DHT22;149;51.094;17.002;2023-09-12T00:34:50;17.50;99.90
324;DHT22;149;51.094;17.002;2023-09-12T00:37:17;17.50;99.90
324;DHT22;149;51.094;17.002;2023-09-12T00:39:44;17.50;99.90
324;DHT22;149;51.094;17.002;2023-09-12T00:42:11;17.50;99.90
324;DHT22;149;51.094;17.002;2023-09-12T00:44:38;17.40;99.90
324;DHT22;149;51.094;17.002;2023-09-12T00:49:48;17.40;99.90
324;DHT22;149;51.094;17.002;2023-09-12T00:52:24;17.40;99.90
324;DHT22;149;51.094;17.002;2023-09-12T00:54:52;17.30;99.90
324;DHT22;149;51.094;17.002;2023-09-12T00:57:20;17.30;99.90
324;DHT22;149;51.094;17.002;2023-09-12T01:02:24;17.30;99.90
324;DHT22;149;51.094;17.002;2023-09-12T01:07:41;17.20;99.90
324;DHT22;149;51.094;17.002;2023-09-12T01:10:09;17.20;99.90
324;DHT22;149;51.094;17.002;2023-09-12T01:12:36;17.20;99.90
324;DHT22;149;51.094;17.002;2023-09-12T01:17:46;17.10;99.90
324;DHT22;149;51.094;17.002;2023-09-12T01:20:24;17.10;99.90
324;DHT22;149;51.094;17.002;2023-09-12T01:22:55;17.10;99.90
324;DHT22;149;51.094;17.002;2023-09-12T01:28:08;17.10;99.90
324;DHT22;149;51.094;17.002;2023-09-12T01:33:09;17.00;99.90
324;DHT22;149;51.094;17.002;2023-09-12T01:35:36;17.00;99.90
324;DHT22;149;51.094;17.002;2023-09-12T01:40:47;17.00;99.90
324;DHT22;149;51.094;17.002;2023-09-12T01:43:17;16.90;99.90
324;DHT22;149;51.094;17.002;2023-09-12T01:56:32;16.90;99.90
324;DHT22;149;51.094;17.002;2023-09-12T01:59:00;16.90;99.90
324;DHT22;149;51.094;17.002;2023-09-12T02:01:27;17.00;99.90
324;DHT22;149;51.094;17.002;2023-09-12T02:03:54;17.00;99.90
324;DHT22;149;51.094;17.002;2023-09-12T02:09:03;16.90;99.90
324;DHT22;149;51.094;17.002;2023-09-12T02:11:45;16.80;99.90
324;DHT22;149;51.094;17.002;2023-09-12T02:14:13;16.80;99.90
324;DHT22;149;51.094;17.002;2023-09-12T02:16:40;16.90;99.90
324;DHT22;149;51.094;17.002;2023-09-12T02:21:52;16.90;99.90
324;DHT22;149;51.094;17.002;2023-09-12T02:24:19;16.90;99.90
324;DHT22;149;51.094;17.002;2023-09-12T02:26:48;16.80;99.90
324;DHT22;149;51.094;17.002;2023-09-12T02:29:14;16.80;99.90
324;DHT22;149;51.094;17.002;2023-09-12T02:31:42;16.80;99.90
324;DHT22;149;51.094;17.002;2023-09-12T02:34:09;16.80;99.90
324;DHT22;149;51.094;17.002;2023-09-12T02:39:17;16.80;99.90
324;DHT22;149;51.094;17.002;2023-09-12T02:41:44;16.80;99.90
324;DHT22;149;51.094;17.002;2023-09-12T02:44:11;16.80;99.90
324;DHT22;149;51.094;17.002;2023-09-12T02:46:38;16.70;99.90
324;DHT22;149;51.094;17.002;2023-09-12T02:49:05;16.70;99.90
324;DHT22;149;51.094;17.002;2023-09-12T02:51:40;16.70;99.90
324;DHT22;149;51.094;17.002;2023-09-12T02:54:11;16.60;99.90
324;DHT22;149;51.094;17.002;2023-09-12T02:56:38;16.60;99.90
324;DHT22;149;51.094;17.002;2023-09-12T02:59:09;16.60;99.90
324;DHT22;149;51.094;17.002;2023-09-12T03:01:37;16.50;99.90
324;DHT22;149;51.094;17.002;2023-09-12T03:04:04;16.40;99.90
324;DHT22;149;51.094;17.002;2023-09-12T03:09:06;16.30;99.90
324;DHT22;149;51.094;17.002;2023-09-12T03:11:55;16.40;99.90
324;DHT22;149;51.094;17.002;2023-09-12T03:14:23;16.30;99.90
324;DHT22;149;51.094;17.002;2023-09-12T03:22:19;16.10;99.90
324;DHT22;149;51.094;17.002;2023-09-12T03:24:46;16.10;99.90
324;DHT22;149;51.094;17.002;2023-09-12T03:27:16;16.10;99.90
324;DHT22;149;51.094;17.002;2023-09-12T03:29:47;16.10;99.90
324;DHT22;149;51.094;17.002;2023-09-12T03:34:55;16.00;99.90
324;DHT22;149;51.094;17.002;2023-09-12T03:37:23;16.00;99.90
324;DHT22;149;51.094;17.002;2023-09-12T03:39:54;15.90;99.90
324;DHT22;149;51.094;17.002;2023-09-12T03:42:21;15.90;99.90
324;DHT22;149;51.094;17.002;2023-09-12T03:44:50;15.90;99.90
324;DHT22;149;51.094;17.002;2023-09-12T03:47:17;15.90;99.90
324;DHT22;149;51.094;17.002;2023-09-12T03:49:44;16.10;99.90
324;DHT22;149;51.094;17.002;2023-09-12T03:52:10;15.90;99.90
324;DHT22;149;51.094;17.002;2023-09-12T03:54:38;15.90;99.90
324;DHT22;149;51.094;17.002;2023-09-12T03:57:05;15.90;99.90
324;DHT22;149;51.094;17.002;2023-09-12T03:59:32;16.00;99.90
324;DHT22;149;51.094;17.002;2023-09-12T04:02:01;15.90;99.90
324;DHT22;149;51.094;17.002;2023-09-12T04:04:29;15.80;99.90
324;DHT22;149;51.094;17.002;2023-09-12T04:06:57;15.90;99.90
324;DHT22;149;51.094;17.002;2023-09-12T04:09:23;15.80;99.90
324;DHT22;149;51.094;17.002;2023-09-12T04:14:26;15.80;99.90
324;DHT22;149;51.094;17.002;2023-09-12T04:16:53;15.80;99.90
324;DHT22;149;51.094;17.002;2023-09-12T04:19:20;15.70;99.90
324;DHT22;149;51.094;17.002;2023-09-12T04:21:46;15.70;99.90
324;DHT22;149;51.094;17.002;2023-09-12T04:24:13;15.80;99.90
324;DHT22;149;51.094;17.002;2023-09-12T04:26:43;15.60;99.90
324;DHT22;149;51.094;17.002;2023-09-12T04:29:10;15.70;99.90
324;DHT22;149;51.094;17.002;2023-09-12T04:31:37;15.70;99.90
324;DHT22;149;51.094;17.002;2023-09-12T04:34:05;15.70;99.90
324;DHT22;149;51.094;17.002;2023-09-12T04:36:32;15.70;99.90
324;DHT22;149;51.094;17.002;2023-09-12T04:38:59;15.70;99.90
324;DHT22;149;51.094;17.002;2023-09-12T04:41:38;15.70;99.90
324;DHT22;149;51.094;17.002;2023-09-12T04:44:05;15.80;99.90
324;DHT22;149;51.094;17.002;2023-09-12T04:46:32;15.80;99.90
324;DHT22;149;51.094;17.002;2023-09-12T04:51:30;15.80;99.90
324;DHT22;149;51.094;17.002;2023-09-12T04:53:57;15.80;99.90
324;DHT22;149;51.094;17.002;2023-09-12T04:56:25;15.90;99.90
324;DHT22;149;51.094;17.002;2023-09-12T04:58:52;16.00;99.90
324;DHT22;149;51.094;17.002;2023-09-12T05:01:20;16.10;99.90
324;DHT22;149;51.094;17.002;2023-09-12T05:03:47;16.10;99.90
324;DHT22;149;51.094;17.002;2023-09-12T05:06:17;16.30;99.90
324;DHT22;149;51.094;17.002;2023-09-12T05:08:44;16.40;99.90
324;DHT22;149;51.094;17.002;2023-09-12T05:11:11;16.50;99.90
324;DHT22;149;51.094;17.002;2023-09-12T05:13:38;16.60;99.90
324;DHT22;149;51.094;17.002;2023-09-12T05:16:05;16.60;99.90
324;DHT22;149;51.094;17.002;2023-09-12T05:18:32;16.80;99.90
324;DHT22;149;51.094;17.002;2023-09-12T05:20:59;17.00;99.90
324;DHT22;149;51.094;17.002;2023-09-12T05:23:26;17.00;99.90
324;DHT22;149;51.094;17.002;2023-09-12T05:25:54;17.20;99.90
324;DHT22;149;51.094;17.002;2023-09-12T05:28:20;17.30;99.90
324;DHT22;149;51.094;17.002;2023-09-12T05:30:47;17.40;99.90
324;DHT22;149;51.094;17.002;2023-09-12T05:33:15;17.50;99.90
324;DHT22;149;51.094;17.002;2023-09-12T05:35:42;17.80;99.90
324;DHT22;149;51.094;17.002;2023-09-12T05:38:11;17.80;99.90
324;DHT22;149;51.094;17.002;2023-09-12T05:40:38;17.90;99.90
324;DHT22;149;51.094;17.002;2023-09-12T05:43:05;18.00;99.90
324;DHT22;149;51.094;17.002;2023-09-12T05:45:32;18.20;99.90
324;DHT22;149;51.094;17.002;2023-09-12T05:48:00;18.40;99.90
324;DHT22;149;51.094;17.002;2023-09-12T05:50:27;18.60;99.90
324;DHT22;149;51.094;17.002;2023-09-12T05:52:54;18.80;99.90
324;DHT22;149;51.094;17.002;2023-09-12T05:55:20;18.90;99.90
324;DHT22;149;51.094;17.002;2023-09-12T05:57:48;19.10;99.90
324;DHT22;149;51.094;17.002;2023-09-12T06:00:19;19.20;99.90
324;DHT22;149;51.094;17.002;2023-09-12T06:02:47;19.40;99.90
324;DHT22;149;51.094;17.002;2023-09-12T06:05:15;19.60;99.90
324;DHT22;149;51.094;17.002;2023-09-12T06:07:43;19.70;99.90
324;DHT22;149;51.094;17.002;2023-09-12T06:10:10;19.70;99.90
324;DHT22;149;51.094;17.002;2023-09-12T06:12:36;19.80;99.90
324;DHT22;149;51.094;17.002;2023-09-12T06:15:04;20.10;99.90
324;DHT22;149;51.094;17.002;2023-09-12T06:17:31;20.30;99.90
324;DHT22;149;51.094;17.002;2023-09-12T06:19:59;20.40;99.90
324;DHT22;149;51.094;17.002;2023-09-12T06:22:26;20.60;99.90
324;DHT22;149;51.094;17.002;2023-09-12T06:24:53;20.70;99.90
324;DHT22;149;51.094;17.002;2023-09-12T06:27:20;20.80;99.90
324;DHT22;149;51.094;17.002;2023-09-12T06:29:50;21.10;99.90
324;DHT22;149;51.094;17.002;2023-09-12T06:32:18;21.40;99.90
324;DHT22;149;51.094;17.002;2023-09-12T06:34:45;21.80;99.90
324;DHT22;149;51.094;17.002;2023-09-12T06:37:13;22.40;99.90
324;DHT22;149;51.094;17.002;2023-09-12T06:39:39;22.50;99.90
324;DHT22;149;51.094;17.002;2023-09-12T06:42:08;22.90;99.90
324;DHT22;149;51.094;17.002;2023-09-12T06:44:35;23.10;99.90
324;DHT22;149;51.094;17.002;2023-09-12T06:47:06;23.60;99.90
324;DHT22;149;51.094;17.002;2023-09-12T06:52:04;24.20;99.90
324;DHT22;149;51.094;17.002;2023-09-12T06:57:06;24.60;99.90
324;DHT22;149;51.094;17.002;2023-09-12T06:59:33;25.00;99.90
324;DHT22;149;51.094;17.002;2023-09-12T07:02:04;25.70;99.90
324;DHT22;149;51.094;17.002;2023-09-12T07:04:31;26.10;99.90
324;DHT22;149;51.094;17.002;2023-09-12T07:09:39;27.40;99.50
324;DHT22;149;51.094;17.002;2023-09-12T07:12:07;27.80;98.40
324;DHT22;149;51.094;17.002;2023-09-12T07:14:34;27.50;98.40
324;DHT22;149;51.094;17.002;2023-09-12T07:30:31;29.70;91.50
324;DHT22;149;51.094;17.002;2023-09-12T07:38:20;30.80;88.10
324;DHT22;149;51.094;17.002;2023-09-12T07:40:48;30.90;85.20
324;DHT22;149;51.094;17.002;2023-09-12T08:04:15;32.00;76.80
324;DHT22;149;51.094;17.002;2023-09-12T08:06:45;32.50;75.40
324;DHT22;149;51.094;17.002;2023-09-12T08:12:06;31.80;76.90
324;DHT22;149;51.094;17.002;2023-09-12T08:17:09;31.80;77.20
324;DHT22;149;51.094;17.002;2023-09-12T08:19:36;32.10;75.00
324;DHT22;149;51.094;17.002;2023-09-12T08:22:03;32.60;74.80
324;DHT22;149;51.094;17.002;2023-09-12T08:24:31;31.70;74.50
324;DHT22;149;51.094;17.002;2023-09-12T08:26:58;32.20;73.70
324;DHT22;149;51.094;17.002;2023-09-12T08:29:25;31.30;75.10
324;DHT22;149;51.094;17.002;2023-09-12T08:31:52;32.00;73.80
324;DHT22;149;51.094;17.002;2023-09-12T08:37:06;31.40;73.80
324;DHT22;149;51.094;17.002;2023-09-12T08:39:44;31.40;75.20
324;DHT22;149;51.094;17.002;2023-09-12T08:42:15;31.70;73.80
324;DHT22;149;51.094;17.002;2023-09-12T08:44:43;31.60;74.30
324;DHT22;149;51.094;17.002;2023-09-12T08:47:11;32.30;73.20
324;DHT22;149;51.094;17.002;2023-09-12T08:49:39;32.50;71.30
324;DHT22;149;51.094;17.002;2023-09-12T08:54:39;32.40;72.70
324;DHT22;149;51.094;17.002;2023-09-12T08:57:07;32.60;72.40
324;DHT22;149;51.094;17.002;2023-09-12T08:59:37;32.60;72.20
324;DHT22;149;51.094;17.002;2023-09-12T09:04:48;32.40;72.30
324;DHT22;149;51.094;17.002;2023-09-12T09:07:18;32.60;71.40
324;DHT22;149;51.094;17.002;2023-09-12T09:09:47;33.40;69.70
324;DHT22;149;51.094;17.002;2023-09-12T09:14:57;33.20;69.70
324;DHT22;149;51.094;17.002;2023-09-12T09:17:25;32.80;71.60
324;DHT22;149;51.094;17.002;2023-09-12T09:20:02;32.70;72.00
324;DHT22;149;51.094;17.002;2023-09-12T09:22:32;32.60;72.90
324;DHT22;149;51.094;17.002;2023-09-12T09:25:20;32.70;72.40
324;DHT22;149;51.094;17.002;2023-09-12T09:27:46;32.50;72.60
324;DHT22;149;51.094;17.002;2023-09-12T09:30:13;32.70;74.00
324;DHT22;149;51.094;17.002;2023-09-12T09:32:41;32.10;74.40
324;DHT22;149;51.094;17.002;2023-09-12T09:35:09;32.00;74.70
324;DHT22;149;51.094;17.002;2023-09-12T09:37:36;31.60;74.10
324;DHT22;149;51.094;17.002;2023-09-12T09:40:06;31.30;74.00
324;DHT22;149;51.094;17.002;2023-09-12T09:42:33;31.70;74.70
324;DHT22;149;51.094;17.002;2023-09-12T09:45:00;31.70;75.30
324;DHT22;149;51.094;17.002;2023-09-12T09:47:28;31.70;74.70
324;DHT22;149;51.094;17.002;2023-09-12T09:49:58;30.90;76.90
324;DHT22;149;51.094;17.002;2023-09-12T09:52:26;30.80;78.70
324;DHT22;149;51.094;17.002;2023-09-12T09:54:54;30.30;80.10
324;DHT22;149;51.094;17.002;2023-09-12T09:57:25;30.50;80.60
324;DHT22;149;51.094;17.002;2023-09-12T09:59:54;30.60;77.90
324;DHT22;149;51.094;17.002;2023-09-12T10:02:24;30.60;79.50
324;DHT22;149;51.094;17.002;2023-09-12T10:04:54;30.50;79.80
324;DHT22;149;51.094;17.002;2023-09-12T10:07:32;30.60;78.50
324;DHT22;149;51.094;17.002;2023-09-12T10:10:02;30.50;76.90
324;DHT22;149;51.094;17.002;2023-09-12T10:12:36;30.40;78.10
324;DHT22;149;51.094;17.002;2023-09-12T10:15:06;30.60;78.70
324;DHT22;149;51.094;17.002;2023-09-12T10:17:36;30.60;76.80
324;DHT22;149;51.094;17.002;2023-09-12T10:20:09;30.80;76.20
324;DHT22;149;51.094;17.002;2023-09-12T10:22:52;31.00;73.30
324;DHT22;149;51.094;17.002;2023-09-12T10:25:23;30.90;75.20
324;DHT22;149;51.094;17.002;2023-09-12T10:27:52;31.10;75.60
324;DHT22;149;51.094;17.002;2023-09-12T10:30:22;31.00;69.20
324;DHT22;149;51.094;17.002;2023-09-12T10:32:49;31.00;70.10
324;DHT22;149;51.094;17.002;2023-09-12T10:35:17;30.90;69.80
324;DHT22;149;51.094;17.002;2023-09-12T10:37:46;30.90;69.40
324;DHT22;149;51.094;17.002;2023-09-12T10:40:17;30.70;68.50
324;DHT22;149;51.094;17.002;2023-09-12T10:42:44;30.80;68.50
324;DHT22;149;51.094;17.002;2023-09-12T10:45:12;30.90;65.60
324;DHT22;149;51.094;17.002;2023-09-12T10:50:09;30.60;66.00
324;DHT22;149;51.094;17.002;2023-09-12T10:52:36;30.40;67.50
324;DHT22;149;51.094;17.002;2023-09-12T10:55:09;30.20;68.00
324;DHT22;149;51.094;17.002;2023-09-12T10:58:06;30.10;68.70
324;DHT22;149;51.094;17.002;2023-09-12T11:00:34;30.10;68.70
324;DHT22;149;51.094;17.002;2023-09-12T11:05:55;30.30;68.20
324;DHT22;149;51.094;17.002;2023-09-12T11:08:22;30.30;66.90
324;DHT22;149;51.094;17.002;2023-09-12T11:11:16;30.40;65.10
324;DHT22;149;51.094;17.002;2023-09-12T11:13:46;30.30;64.30
324;DHT22;149;51.094;17.002;2023-09-12T11:16:16;30.40;65.70
324;DHT22;149;51.094;17.002;2023-09-12T11:19:15;30.30;67.40
324;DHT22;149;51.094;17.002;2023-09-12T11:21:47;30.10;67.50
324;DHT22;149;51.094;17.002;2023-09-12T11:24:15;29.80;68.20
324;DHT22;149;51.094;17.002;2023-09-12T11:26:58;30.00;68.50
324;DHT22;149;51.094;17.002;2023-09-12T11:29:34;30.20;66.80
324;DHT22;149;51.094;17.002;2023-09-12T11:32:03;30.30;66.30
324;DHT22;149;51.094;17.002;2023-09-12T11:34:41;30.40;66.10
324;DHT22;149;51.094;17.002;2023-09-12T11:37:09;30.30;67.50
324;DHT22;149;51.094;17.002;2023-09-12T11:39:38;30.20;67.30
324;DHT22;149;51.094;17.002;2023-09-12T11:42:11;30.20;67.00
324;DHT22;149;51.094;17.002;2023-09-12T11:44:40;30.20;66.50
324;DHT22;149;51.094;17.002;2023-09-12T11:47:10;29.90;66.20
324;DHT22;149;51.094;17.002;2023-09-12T11:49:40;30.00;66.10
324;DHT22;149;51.094;17.002;2023-09-12T11:52:14;30.00;66.70
324;DHT22;149;51.094;17.002;2023-09-12T11:54:44;30.20;66.00
324;DHT22;149;51.094;17.002;2023-09-12T11:57:13;30.10;65.30
324;DHT22;149;51.094;17.002;2023-09-12T11:59:43;30.10;65.70
324;DHT22;149;51.094;17.002;2023-09-12T12:02:12;30.30;65.50
324;DHT22;149;51.094;17.002;2023-09-12T12:04:39;30.40;64.60
324;DHT22;149;51.094;17.002;2023-09-12T12:07:07;30.50;64.30
324;DHT22;149;51.094;17.002;2023-09-12T12:09:34;30.60;64.50
324;DHT22;149;51.094;17.002;2023-09-12T12:12:14;30.50;64.70
324;DHT22;149;51.094;17.002;2023-09-12T12:14:41;30.50;64.30
324;DHT22;149;51.094;17.002;2023-09-12T12:17:10;30.50;64.60
324;DHT22;149;51.094;17.002;2023-09-12T12:19:38;30.60;64.00
324;DHT22;149;51.094;17.002;2023-09-12T12:22:06;30.50;64.30
324;DHT22;149;51.094;17.002;2023-09-12T12:24:49;30.70;65.20
324;DHT22;149;51.094;17.002;2023-09-12T12:27:18;30.60;65.00
324;DHT22;149;51.094;17.002;2023-09-12T12:32:19;30.50;64.10
324;DHT22;149;51.094;17.002;2023-09-12T12:34:48;30.80;63.60
324;DHT22;149;51.094;17.002;2023-09-12T12:37:36;30.40;63.70
324;DHT22;149;51.094;17.002;2023-09-12T12:42:44;30.50;64.50
324;DHT22;149;51.094;17.002;2023-09-12T12:45:22;30.70;63.70
324;DHT22;149;51.094;17.002;2023-09-12T12:48:00;30.80;62.70
324;DHT22;149;51.094;17.002;2023-09-12T12:50:28;30.60;63.20
324;DHT22;149;51.094;17.002;2023-09-12T12:52:55;30.80;62.80
324;DHT22;149;51.094;17.002;2023-09-12T12:55:25;30.70;63.10
324;DHT22;149;51.094;17.002;2023-09-12T12:57:53;30.80;63.40
324;DHT22;149;51.094;17.002;2023-09-12T13:00:20;30.80;63.10
324;DHT22;149;51.094;17.002;2023-09-12T13:02:48;30.60;63.20
324;DHT22;149;51.094;17.002;2023-09-12T13:05:29;30.20;64.30
324;DHT22;149;51.094;17.002;2023-09-12T13:10:30;30.20;64.20
324;DHT22;149;51.094;17.002;2023-09-12T13:12:57;30.20;64.30
324;DHT22;149;51.094;17.002;2023-09-12T13:15:24;30.00;64.10
324;DHT22;149;51.094;17.002;2023-09-12T13:17:52;30.00;64.20
324;DHT22;149;51.094;17.002;2023-09-12T13:20:19;29.80;65.40
324;DHT22;149;51.094;17.002;2023-09-12T13:22:47;30.00;65.40
324;DHT22;149;51.094;17.002;2023-09-12T13:27:49;30.40;65.10
324;DHT22;149;51.094;17.002;2023-09-12T13:32:44;30.20;64.30
324;DHT22;149;51.094;17.002;2023-09-12T13:35:14;30.30;64.90
324;DHT22;149;51.094;17.002;2023-09-12T13:37:43;30.30;64.50
324;DHT22;149;51.094;17.002;2023-09-12T13:40:12;30.50;64.60
324;DHT22;149;51.094;17.002;2023-09-12T13:42:40;30.30;64.20
324;DHT22;149;51.094;17.002;2023-09-12T13:45:10;30.50;64.50
324;DHT22;149;51.094;17.002;2023-09-12T13:50:05;30.30;63.70
324;DHT22;149;51.094;17.002;2023-09-12T13:52:32;30.20;64.30
324;DHT22;149;51.094;17.002;2023-09-12T13:55:01;30.30;64.60
324;DHT22;149;51.094;17.002;2023-09-12T13:57:30;30.30;65.70
324;DHT22;149;51.094;17.002;2023-09-12T14:05:21;30.20;64.30
324;DHT22;149;51.094;17.002;2023-09-12T14:07:49;30.20;64.10
324;DHT22;149;51.094;17.002;2023-09-12T14:13:03;30.20;65.00
324;DHT22;149;51.094;17.002;2023-09-12T14:15:47;30.30;64.50
324;DHT22;149;51.094;17.002;2023-09-12T14:20:51;30.60;64.10
324;DHT22;149;51.094;17.002;2023-09-12T14:23:19;30.70;64.40
324;DHT22;149;51.094;17.002;2023-09-12T14:25:51;30.50;66.10
324;DHT22;149;51.094;17.002;2023-09-12T14:28:19;30.40;66.70
324;DHT22;149;51.094;17.002;2023-09-12T14:33:35;30.30;66.00
324;DHT22;149;51.094;17.002;2023-09-12T14:36:02;30.20;65.80
324;DHT22;149;51.094;17.002;2023-09-12T14:43:35;30.00;66.00
324;DHT22;149;51.094;17.002;2023-09-12T14:46:02;30.10;65.70
324;DHT22;149;51.094;17.002;2023-09-12T14:51:12;30.00;65.20
324;DHT22;149;51.094;17.002;2023-09-12T14:53:53;29.90;65.30
324;DHT22;149;51.094;17.002;2023-09-12T14:59:04;29.60;66.70
324;DHT22;149;51.094;17.002;2023-09-12T15:01:31;29.40;67.50
324;DHT22;149;51.094;17.002;2023-09-12T15:04:00;29.50;67.50
324;DHT22;149;51.094;17.002;2023-09-12T15:09:03;29.40;67.80
324;DHT22;149;51.094;17.002;2023-09-12T15:14:06;29.30;67.90
324;DHT22;149;51.094;17.002;2023-09-12T15:16:33;29.20;67.50
324;DHT22;149;51.094;17.002;2023-09-12T15:21:44;29.20;69.00
324;DHT22;149;51.094;17.002;2023-09-12T15:24:12;29.20;68.50
324;DHT22;149;51.094;17.002;2023-09-12T15:29:21;29.00;68.40
324;DHT22;149;51.094;17.002;2023-09-12T15:34:23;29.10;69.40
324;DHT22;149;51.094;17.002;2023-09-12T15:37:12;28.90;69.60
324;DHT22;149;51.094;17.002;2023-09-12T15:39:42;28.90;70.20
324;DHT22;149;51.094;17.002;2023-09-12T15:44:45;28.80;70.30
324;DHT22;149;51.094;17.002;2023-09-12T15:50:08;28.70;69.60
324;DHT22;149;51.094;17.002;2023-09-12T15:55:17;28.60;70.80
324;DHT22;149;51.094;17.002;2023-09-12T16:08:25;28.30;72.10
324;DHT22;149;51.094;17.002;2023-09-12T16:13:41;28.30;71.30
324;DHT22;149;51.094;17.002;2023-09-12T16:18:51;28.00;73.30
324;DHT22;149;51.094;17.002;2023-09-12T16:21:18;27.90;73.30
324;DHT22;149;51.094;17.002;2023-09-12T16:34:38;27.50;74.80
324;DHT22;149;51.094;17.002;2023-09-12T16:37:05;27.40;74.90
324;DHT22;149;51.094;17.002;2023-09-12T16:39:32;27.50;75.20
324;DHT22;149;51.094;17.002;2023-09-12T16:42:01;27.40;75.60
324;DHT22;149;51.094;17.002;2023-09-12T16:49:40;27.10;75.70
324;DHT22;149;51.094;17.002;2023-09-12T16:52:08;27.10;76.30
324;DHT22;149;51.094;17.002;2023-09-12T17:10:47;26.50;78.70
324;DHT22;149;51.094;17.002;2023-09-12T17:16:11;26.40;80.60
324;DHT22;149;51.094;17.002;2023-09-12T18:23:40;24.90;90.20
324;DHT22;149;51.094;17.002;2023-09-12T18:36:46;24.70;90.30
324;DHT22;149;51.094;17.002;2023-09-12T18:44:41;24.50;90.80
324;DHT22;149;51.094;17.002;2023-09-12T18:47:16;24.50;90.90
324;DHT22;149;51.094;17.002;2023-09-12T18:55:09;24.30;91.20
324;DHT22;149;51.094;17.002;2023-09-12T18:57:36;24.20;91.60
324;DHT22;149;51.094;17.002;2023-09-12T19:05:22;24.10;92.20
324;DHT22;149;51.094;17.002;2023-09-12T19:07:49;24.10;92.30
324;DHT22;149;51.094;17.002;2023-09-12T19:10:16;24.10;92.50
324;DHT22;149;51.094;17.002;2023-09-12T19:12:43;24.10;92.60
324;DHT22;149;51.094;17.002;2023-09-12T19:15:10;23.90;92.90
324;DHT22;149;51.094;17.002;2023-09-12T19:17:39;23.90;93.30
324;DHT22;149;51.094;17.002;2023-09-12T19:20:06;23.80;93.60
324;DHT22;149;51.094;17.002;2023-09-12T19:22:35;23.80;93.80
324;DHT22;149;51.094;17.002;2023-09-12T19:27:45;23.80;93.90
324;DHT22;149;51.094;17.002;2023-09-12T19:30:13;23.80;94.00
324;DHT22;149;51.094;17.002;2023-09-12T19:32:42;23.70;94.20
324;DHT22;149;51.094;17.002;2023-09-12T19:35:09;23.60;94.20
324;DHT22;149;51.094;17.002;2023-09-12T19:37:38;23.70;94.50
324;DHT22;149;51.094;17.002;2023-09-12T19:40:10;23.70;94.70
324;DHT22;149;51.094;17.002;2023-09-12T19:42:48;23.60;95.10
324;DHT22;149;51.094;17.002;2023-09-12T19:45:18;23.60;95.40
324;DHT22;149;51.094;17.002;2023-09-12T19:50:31;23.50;96.00
324;DHT22;149;51.094;17.002;2023-09-12T19:53:00;23.40;96.60
324;DHT22;149;51.094;17.002;2023-09-12T19:55:31;23.30;97.00
324;DHT22;149;51.094;17.002;2023-09-12T20:00:40;23.20;97.90
324;DHT22;149;51.094;17.002;2023-09-12T20:08:36;23.20;99.10
324;DHT22;149;51.094;17.002;2023-09-12T20:11:07;23.10;99.50
324;DHT22;149;51.094;17.002;2023-09-12T20:13:41;23.10;99.90
324;DHT22;149;51.094;17.002;2023-09-12T20:16:16;23.00;99.90
324;DHT22;149;51.094;17.002;2023-09-12T20:18:44;22.90;99.90
324;DHT22;149;51.094;17.002;2023-09-12T20:21:12;22.90;99.90
324;DHT22;149;51.094;17.002;2023-09-12T20:23:42;22.80;99.90
324;DHT22;149;51.094;17.002;2023-09-12T20:26:09;22.70;99.90
324;DHT22;149;51.094;17.002;2023-09-12T20:28:40;22.60;99.90
324;DHT22;149;51.094;17.002;2023-09-12T20:31:07;22.60;99.90
324;DHT22;149;51.094;17.002;2023-09-12T20:33:34;22.50;99.90
324;DHT22;149;51.094;17.002;2023-09-12T20:36:12;22.50;99.90
324;DHT22;149;51.094;17.002;2023-09-12T20:38:49;22.40;99.90
324;DHT22;149;51.094;17.002;2023-09-12T20:41:17;22.40;99.90
324;DHT22;149;51.094;17.002;2023-09-12T20:43:45;22.30;99.90
324;DHT22;149;51.094;17.002;2023-09-12T20:46:14;22.40;99.90
324;DHT22;149;51.094;17.002;2023-09-12T20:48:41;22.30;99.90
324;DHT22;149;51.094;17.002;2023-09-12T20:51:09;22.20;99.90
324;DHT22;149;51.094;17.002;2023-09-12T20:53:37;22.20;99.90
324;DHT22;149;51.094;17.002;2023-09-12T20:56:04;22.20;99.90
324;DHT22;149;51.094;17.002;2023-09-12T20:58:32;22.10;99.90
324;DHT22;149;51.094;17.002;2023-09-12T21:00:59;22.20;99.90
324;DHT22;149;51.094;17.002;2023-09-12T21:03:29;22.20;99.90
324;DHT22;149;51.094;17.002;2023-09-12T21:05:56;22.20;99.90
324;DHT22;149;51.094;17.002;2023-09-12T21:08:23;22.40;99.90
324;DHT22;149;51.094;17.002;2023-09-12T21:10:50;22.30;99.90
324;DHT22;149;51.094;17.002;2023-09-12T21:13:17;22.50;99.90
324;DHT22;149;51.094;17.002;2023-09-12T21:15:44;22.40;99.90
324;DHT22;149;51.094;17.002;2023-09-12T21:18:11;22.40;99.90
324;DHT22;149;51.094;17.002;2023-09-12T21:20:38;22.40;99.90
324;DHT22;149;51.094;17.002;2023-09-12T21:23:05;22.30;99.90
324;DHT22;149;51.094;17.002;2023-09-12T21:30:54;22.30;99.90
324;DHT22;149;51.094;17.002;2023-09-12T21:33:21;22.20;99.90
324;DHT22;149;51.094;17.002;2023-09-12T21:38:25;22.00;99.90
324;DHT22;149;51.094;17.002;2023-09-12T21:40:52;22.00;99.90
324;DHT22;149;51.094;17.002;2023-09-12T21:43:19;21.80;99.90
324;DHT22;149;51.094;17.002;2023-09-12T21:45:46;21.80;99.90
324;DHT22;149;51.094;17.002;2023-09-12T21:48:13;21.70;99.90
324;DHT22;149;51.094;17.002;2023-09-12T21:50:41;21.70;99.90
324;DHT22;149;51.094;17.002;2023-09-12T21:53:10;21.70;99.90
324;DHT22;149;51.094;17.002;2023-09-12T21:55:36;21.50;99.90
324;DHT22;149;51.094;17.002;2023-09-12T21:58:04;21.50;99.90
324;DHT22;149;51.094;17.002;2023-09-12T22:00:31;21.50;99.90
324;DHT22;149;51.094;17.002;2023-09-12T22:03:01;21.50;99.90
324;DHT22;149;51.094;17.002;2023-09-12T22:05:29;21.30;99.90
324;DHT22;149;51.094;17.002;2023-09-12T22:07:56;21.40;99.90
324;DHT22;149;51.094;17.002;2023-09-12T22:10:23;21.20;99.90
324;DHT22;149;51.094;17.002;2023-09-12T22:12:50;21.20;99.90
324;DHT22;149;51.094;17.002;2023-09-12T22:15:18;21.20;99.90
324;DHT22;149;51.094;17.002;2023-09-12T22:17:47;21.10;99.90
324;DHT22;149;51.094;17.002;2023-09-12T22:20:14;21.00;99.90
324;DHT22;149;51.094;17.002;2023-09-12T22:22:44;21.00;99.90
324;DHT22;149;51.094;17.002;2023-09-12T22:25:12;20.80;99.90
324;DHT22;149;51.094;17.002;2023-09-12T22:27:41;20.90;99.90
324;DHT22;149;51.094;17.002;2023-09-12T22:30:10;20.90;99.90
324;DHT22;149;51.094;17.002;2023-09-12T22:32:38;20.90;99.90
324;DHT22;149;51.094;17.002;2023-09-12T22:35:06;21.00;99.90
324;DHT22;149;51.094;17.002;2023-09-12T22:37:33;20.90;99.90